createdAt,value
2022-09-01T00:01:29.152Z,22.26
2022-09-01T00:04:03.633Z,22.32
2022-09-01T00:06:32.901Z,22.35
2022-09-01T00:09:01.682Z,22.32
2022-09-01T00:11:29.995Z,22.31
2022-09-01T00:13:59.440Z,22.31
2022-09-01T00:16:27.364Z,22.29
2022-09-01T00:18:55.627Z,22.30
2022-09-01T00:21:25.036Z,22.31
2022-09-01T00:23:53.065Z,22.32
2022-09-01T00:26:21.026Z,22.31
2022-09-01T00:28:49.712Z,22.34
2022-09-01T00:31:20.154Z,22.29
2022-09-01T00:33:48.506Z,22.28
2022-09-01T00:36:16.457Z,22.24
2022-09-01T00:38:44.655Z,22.23
2022-09-01T00:41:12.994Z,22.24
2022-09-01T00:43:42.010Z,22.22
2022-09-01T00:46:13.089Z,22.21
2022-09-01T00:48:42.442Z,22.21
2022-09-01T00:51:12.412Z,22.19
2022-09-01T00:53:41.173Z,22.18
2022-09-01T00:56:09.166Z,22.17
2022-09-01T00:58:37.287Z,22.12
2022-09-01T01:01:05.438Z,22.07
2022-09-01T01:03:34.061Z,22.04
2022-09-01T01:06:08.301Z,22.05
2022-09-01T01:08:38.659Z,22.03
2022-09-01T01:11:07.596Z,22.02
2022-09-01T01:13:49.455Z,22.00
2022-09-01T01:16:17.466Z,21.98
2022-09-01T01:18:45.457Z,21.99
2022-09-01T01:21:34.350Z,21.98
2022-09-01T01:24:03.756Z,21.97
2022-09-01T01:26:33.081Z,21.97
2022-09-01T01:29:03.731Z,21.95
2022-09-01T01:31:32.857Z,21.92
2022-09-01T01:34:00.795Z,21.92
2022-09-01T01:36:32.609Z,21.92
2022-09-01T01:39:02.004Z,21.91
2022-09-01T01:41:30.179Z,21.90
2022-09-01T01:43:59.594Z,21.89
2022-09-01T01:46:27.584Z,21.88
2022-09-01T01:48:55.719Z,21.89
2022-09-01T01:51:26.854Z,21.94
2022-09-01T01:53:55.312Z,21.94
2022-09-01T01:56:25.540Z,21.93
2022-09-01T01:58:56.527Z,21.92
2022-09-01T02:01:28.784Z,21.90
2022-09-01T02:03:57.017Z,21.90
2022-09-01T02:06:28.687Z,21.87
2022-09-01T02:08:57.954Z,21.86
2022-09-01T02:11:26.743Z,21.86
2022-09-01T02:13:56.227Z,21.85
2022-09-01T02:16:25.786Z,21.84
2022-09-01T02:18:54.009Z,21.84
2022-09-01T02:21:23.757Z,21.82
2022-09-01T02:24:00.307Z,21.79
2022-09-01T02:26:32.198Z,21.76
2022-09-01T02:29:02.009Z,21.73
2022-09-01T02:31:32.094Z,21.71
2022-09-01T02:34:01.207Z,21.71
2022-09-01T02:36:32.732Z,21.70
2022-09-01T02:39:00.695Z,21.67
2022-09-01T02:41:32.320Z,21.65
2022-09-01T02:44:02.513Z,21.62
2022-09-01T02:46:31.975Z,21.61
2022-09-01T02:49:00.768Z,21.59
2022-09-01T02:51:28.859Z,21.58
2022-09-01T02:53:56.806Z,21.55
2022-09-01T02:56:25.899Z,21.55
2022-09-01T02:58:54.016Z,21.59
2022-09-01T03:01:25.592Z,21.58
2022-09-01T03:03:55.923Z,21.54
2022-09-01T03:06:24.476Z,21.52
2022-09-01T03:08:53.053Z,21.48
2022-09-01T03:11:21.008Z,21.45
2022-09-01T03:13:48.926Z,21.45
2022-09-01T03:16:17.301Z,21.49
2022-09-01T03:18:45.288Z,21.48
2022-09-01T03:21:17.323Z,21.47
2022-09-01T03:23:45.580Z,21.46
2022-09-01T03:26:13.545Z,21.46
2022-09-01T03:28:41.574Z,21.42
2022-09-01T03:31:10.068Z,21.42
2022-09-01T03:33:38.129Z,21.41
2022-09-01T03:36:08.392Z,21.39
2022-09-01T03:38:48.810Z,21.38
2022-09-01T03:41:17.855Z,21.34
2022-09-01T03:43:47.066Z,21.32
2022-09-01T03:46:20.328Z,21.28
2022-09-01T03:48:50.052Z,21.26
2022-09-01T03:51:18.545Z,21.25
2022-09-01T03:53:47.914Z,21.24
2022-09-01T03:56:16.681Z,21.23
2022-09-01T03:58:47.396Z,21.21
2022-09-01T04:01:16.147Z,21.20
2022-09-01T04:03:44.953Z,21.19
2022-09-01T04:06:13.706Z,21.15
2022-09-01T04:08:43.012Z,21.14
2022-09-01T04:11:16.516Z,21.12
2022-09-01T04:13:44.440Z,21.11
2022-09-01T04:16:40.542Z,21.13
2022-09-01T04:19:16.115Z,21.10
2022-09-01T04:21:44.975Z,21.10
2022-09-01T04:24:14.891Z,21.10
2022-09-01T04:26:46.072Z,21.12
2022-09-01T04:29:14.014Z,21.12
2022-09-01T04:31:42.587Z,21.15
2022-09-01T04:34:13.979Z,21.12
2022-09-01T04:36:43.666Z,21.07
2022-09-01T04:39:13.309Z,21.05
2022-09-01T04:41:46.250Z,21.05
2022-09-01T04:44:15.804Z,21.04
2022-09-01T04:46:46.456Z,21.03
2022-09-01T04:49:19.437Z,21.02
2022-09-01T04:51:53.412Z,21.02
2022-09-01T04:54:21.850Z,21.03
2022-09-01T04:56:52.574Z,21.01
2022-09-01T04:59:21.891Z,21.02
2022-09-01T05:01:50.729Z,20.94
2022-09-01T05:04:20.620Z,21.00
2022-09-01T05:06:50.367Z,21.03
2022-09-01T05:09:18.615Z,21.11
2022-09-01T05:11:47.224Z,21.11
2022-09-01T05:14:18.518Z,21.08
2022-09-01T05:16:46.507Z,21.04
2022-09-01T05:19:15.674Z,21.01
2022-09-01T05:21:45.482Z,20.99
2022-09-01T05:24:14.788Z,20.96
2022-09-01T05:26:44.311Z,20.95
2022-09-01T05:29:16.032Z,20.94
2022-09-01T05:31:46.944Z,20.95
2022-09-01T05:34:20.057Z,21.01
2022-09-01T05:36:50.902Z,21.11
2022-09-01T05:39:18.796Z,21.15
2022-09-01T05:41:48.127Z,21.17
2022-09-01T05:44:18.450Z,21.12
2022-09-01T05:46:47.816Z,21.12
2022-09-01T05:49:18.903Z,21.14
2022-09-01T05:51:50.518Z,21.15
2022-09-01T05:54:19.204Z,21.13
2022-09-01T05:56:47.358Z,21.15
2022-09-01T05:59:24.420Z,21.20
2022-09-01T06:01:54.625Z,21.21
2022-09-01T06:04:23.021Z,21.21
2022-09-01T06:07:08.582Z,21.22
2022-09-01T06:09:39.325Z,21.23
2022-09-01T06:12:07.678Z,21.25
2022-09-01T06:14:35.592Z,21.31
2022-09-01T06:17:04.901Z,21.22
2022-09-01T06:19:37.125Z,21.31
2022-09-01T06:22:05.439Z,21.31
2022-09-01T06:24:33.351Z,21.33
2022-09-01T06:27:01.298Z,21.39
2022-09-01T06:29:31.362Z,21.45
2022-09-01T06:32:02.398Z,21.46
2022-09-01T06:34:31.997Z,21.48
2022-09-01T06:36:59.917Z,21.47
2022-09-01T06:39:27.841Z,21.46
2022-09-01T06:41:56.110Z,21.44
2022-09-01T06:44:24.665Z,21.48
2022-09-01T06:46:53.166Z,21.46
2022-09-01T06:49:21.504Z,21.50
2022-09-01T06:51:52.832Z,21.49
2022-09-01T06:54:21.686Z,21.52
2022-09-01T06:56:51.695Z,21.49
2022-09-01T06:59:20.775Z,21.50
2022-09-01T07:01:52.939Z,21.53
2022-09-01T07:04:22.168Z,21.55
2022-09-01T07:07:53.832Z,21.57
2022-09-01T07:09:47.840Z,21.59
2022-09-01T07:12:26.985Z,21.57
2022-09-01T07:17:47.390Z,21.61
2022-09-01T07:20:25.945Z,21.61
2022-09-01T07:23:04.189Z,21.62
2022-09-01T07:26:00.666Z,21.62
2022-09-01T07:28:25.307Z,21.62
2022-09-01T07:30:54.097Z,21.64
2022-09-01T07:36:28.992Z,21.68
2022-09-01T07:44:38.796Z,21.73
2022-09-01T07:50:37.425Z,21.77
2022-09-01T07:52:49.624Z,21.79
2022-09-01T07:55:19.201Z,21.80
2022-09-01T07:57:47.113Z,21.81
2022-09-01T08:00:18.339Z,21.85
2022-09-01T08:02:47.087Z,21.86
2022-09-01T08:05:17.843Z,21.86
2022-09-01T08:07:54.635Z,21.86
2022-09-01T08:10:24.050Z,21.87
2022-09-01T08:12:58.979Z,21.89
2022-09-01T08:16:06.814Z,21.91
2022-09-01T08:18:15.463Z,21.92
2022-09-01T08:20:45.559Z,21.95
2022-09-01T08:23:13.934Z,21.97
2022-09-01T08:25:45.160Z,21.98
2022-09-01T08:28:13.358Z,21.97
2022-09-01T08:30:41.999Z,22.01
2022-09-01T08:33:20.008Z,22.02
2022-09-01T08:35:49.831Z,22.02
2022-09-01T08:38:17.769Z,22.04
2022-09-01T08:40:56.333Z,22.03
2022-09-01T08:43:28.803Z,22.05
2022-09-01T08:45:57.989Z,22.04
2022-09-01T08:49:23.221Z,22.04
2022-09-01T08:51:20.276Z,22.07
2022-09-01T08:53:50.761Z,22.07
2022-09-01T08:56:20.124Z,22.09
2022-09-01T08:58:48.251Z,22.09
2022-09-01T09:01:21.887Z,22.10
2022-09-01T09:03:53.808Z,22.11
2022-09-01T09:06:25.498Z,22.12
2022-09-01T09:08:55.554Z,22.14
2022-09-01T09:11:51.505Z,22.16
2022-09-01T09:14:49.528Z,22.16
2022-09-01T09:17:17.529Z,22.17
2022-09-01T09:19:45.647Z,22.17
2022-09-01T09:22:14.664Z,22.20
2022-09-01T09:24:50.296Z,22.22
2022-09-01T09:27:21.166Z,22.23
2022-09-01T09:29:50.990Z,22.24
2022-09-01T09:32:22.855Z,22.27
2022-09-01T09:34:52.757Z,22.28
2022-09-01T09:37:25.377Z,22.28
2022-09-01T09:40:08.547Z,22.30
2022-09-01T09:42:39.796Z,22.32
2022-09-01T09:45:14.935Z,22.32
2022-09-01T09:47:44.912Z,22.34
2022-09-01T09:50:23.776Z,22.34
2022-09-01T09:52:52.330Z,22.36
2022-09-01T09:55:23.713Z,22.38
2022-09-01T09:57:55.619Z,22.39
2022-09-01T10:00:25.629Z,22.41
2022-09-01T10:02:58.953Z,22.43
2022-09-01T10:05:30.761Z,22.46
2022-09-01T10:07:59.484Z,22.47
2022-09-01T10:10:30.309Z,22.49
2022-09-01T10:13:00.568Z,22.50
2022-09-01T10:15:30.956Z,22.52
